sensor_id;sensor_type;location;lat;lon;timestamp;P1;durP1;ratioP1;P2;durP2;ratioP2
21507;SDS011;10915;54.352;9.074;2023-02-12T00:00:58;28.10;;;6.40;;
21507;SDS011;10915;54.352;9.074;2023-02-12T00:03:24;45.90;;;8.30;;
21507;SDS011;10915;54.352;9.074;2023-02-12T00:05:49;39.90;;;7.30;;
21507;SDS011;10915;54.352;9.074;2023-02-12T00:08:15;51.83;;;7.87;;
21507;SDS011;10915;54.352;9.074;2023-02-12T00:10:41;48.13;;;9.77;;
21507;SDS011;10915;54.352;9.074;2023-02-12T00:13:09;47.73;;;9.20;;
21507;SDS011;10915;54.352;9.074;2023-02-12T00:15:39;41.97;;;7.97;;
21507;SDS011;10915;54.352;9.074;2023-02-12T00:18:06;51.00;;;7.80;;
21507;SDS011;10915;54.352;9.074;2023-02-12T00:20:32;39.60;;;6.83;;
21507;SDS011;10915;54.352;9.074;2023-02-12T00:22:58;35.87;;;6.77;;
21507;SDS011;10915;54.352;9.074;2023-02-12T00:25:23;49.20;;;7.23;;
21507;SDS011;10915;54.352;9.074;2023-02-12T00:27:49;46.23;;;7.70;;
21507;SDS011;10915;54.352;9.074;2023-02-12T00:30:15;48.63;;;8.30;;
21507;SDS011;10915;54.352;9.074;2023-02-12T00:32:40;44.33;;;7.73;;
21507;SDS011;10915;54.352;9.074;2023-02-12T00:35:06;48.73;;;8.37;;
21507;SDS011;10915;54.352;9.074;2023-02-12T00:37:32;44.00;;;7.57;;
21507;SDS011;10915;54.352;9.074;2023-02-12T00:39:57;61.57;;;9.57;;
21507;SDS011;10915;54.352;9.074;2023-02-12T00:42:23;46.83;;;8.47;;
21507;SDS011;10915;54.352;9.074;2023-02-12T00:44:49;50.90;;;8.77;;
21507;SDS011;10915;54.352;9.074;2023-02-12T00:47:15;59.20;;;9.27;;
21507;SDS011;10915;54.352;9.074;2023-02-12T00:49:40;48.67;;;8.57;;
21507;SDS011;10915;54.352;9.074;2023-02-12T00:52:06;61.10;;;8.80;;
21507;SDS011;10915;54.352;9.074;2023-02-12T00:54:32;42.13;;;7.90;;
21507;SDS011;10915;54.352;9.074;2023-02-12T00:56:58;49.60;;;9.43;;
21507;SDS011;10915;54.352;9.074;2023-02-12T00:59:24;42.70;;;9.00;;
21507;SDS011;10915;54.352;9.074;2023-02-12T01:01:50;56.07;;;9.73;;
21507;SDS011;10915;54.352;9.074;2023-02-12T01:04:18;53.93;;;9.87;;
21507;SDS011;10915;54.352;9.074;2023-02-12T01:06:43;55.93;;;8.93;;
21507;SDS011;10915;54.352;9.074;2023-02-12T01:09:09;61.57;;;10.47;;
21507;SDS011;10915;54.352;9.074;2023-02-12T01:11:36;55.70;;;9.53;;
21507;SDS011;10915;54.352;9.074;2023-02-12T01:14:03;56.27;;;8.87;;
21507;SDS011;10915;54.352;9.074;2023-02-12T01:16:29;51.20;;;8.93;;
21507;SDS011;10915;54.352;9.074;2023-02-12T01:19:00;41.60;;;8.90;;
21507;SDS011;10915;54.352;9.074;2023-02-12T01:21:28;51.10;;;9.67;;
21507;SDS011;10915;54.352;9.074;2023-02-12T01:23:55;49.33;;;8.30;;
21507;SDS011;10915;54.352;9.074;2023-02-12T01:26:22;50.03;;;7.87;;
21507;SDS011;10915;54.352;9.074;2023-02-12T01:28:49;41.50;;;7.80;;
21507;SDS011;10915;54.352;9.074;2023-02-12T01:31:18;59.00;;;9.23;;
21507;SDS011;10915;54.352;9.074;2023-02-12T01:33:47;41.47;;;8.47;;
21507;SDS011;10915;54.352;9.074;2023-02-12T01:36:14;32.83;;;7.27;;
21507;SDS011;10915;54.352;9.074;2023-02-12T01:38:40;47.60;;;7.97;;
21507;SDS011;10915;54.352;9.074;2023-02-12T01:41:07;46.97;;;8.57;;
21507;SDS011;10915;54.352;9.074;2023-02-12T01:43:37;50.60;;;8.33;;
21507;SDS011;10915;54.352;9.074;2023-02-12T01:46:03;42.93;;;7.63;;
21507;SDS011;10915;54.352;9.074;2023-02-12T01:48:33;48.73;;;7.77;;
21507;SDS011;10915;54.352;9.074;2023-02-12T01:51:08;51.20;;;7.77;;
21507;SDS011;10915;54.352;9.074;2023-02-12T01:53:39;54.43;;;7.87;;
21507;SDS011;10915;54.352;9.074;2023-02-12T01:56:08;44.17;;;7.30;;
21507;SDS011;10915;54.352;9.074;2023-02-12T01:58:36;35.53;;;6.60;;
21507;SDS011;10915;54.352;9.074;2023-02-12T02:01:05;36.53;;;6.93;;
21507;SDS011;10915;54.352;9.074;2023-02-12T02:03:35;45.20;;;8.00;;
21507;SDS011;10915;54.352;9.074;2023-02-12T02:06:13;47.87;;;7.90;;
21507;SDS011;10915;54.352;9.074;2023-02-12T02:08:43;53.63;;;8.30;;
21507;SDS011;10915;54.352;9.074;2023-02-12T02:11:10;50.10;;;7.50;;
21507;SDS011;10915;54.352;9.074;2023-02-12T02:13:56;41.70;;;8.17;;
21507;SDS011;10915;54.352;9.074;2023-02-12T02:16:46;46.93;;;8.23;;
21507;SDS011;10915;54.352;9.074;2023-02-12T02:22:33;46.60;;;8.60;;
21507;SDS011;10915;54.352;9.074;2023-02-12T02:35:52;34.87;;;7.30;;
21507;SDS011;10915;54.352;9.074;2023-02-12T02:38:30;48.47;;;7.63;;
21507;SDS011;10915;54.352;9.074;2023-02-12T02:41:09;43.03;;;7.23;;
21507;SDS011;10915;54.352;9.074;2023-02-12T02:43:45;41.70;;;7.50;;
21507;SDS011;10915;54.352;9.074;2023-02-12T02:46:15;43.87;;;8.33;;
21507;SDS011;10915;54.352;9.074;2023-02-12T02:48:49;39.10;;;7.87;;
21507;SDS011;10915;54.352;9.074;2023-02-12T02:51:20;50.80;;;9.50;;
21507;SDS011;10915;54.352;9.074;2023-02-12T02:53:53;47.67;;;8.03;;
21507;SDS011;10915;54.352;9.074;2023-02-12T02:56:28;53.43;;;8.87;;
21507;SDS011;10915;54.352;9.074;2023-02-12T02:58:58;34.87;;;8.40;;
21507;SDS011;10915;54.352;9.074;2023-02-12T03:01:29;37.07;;;7.47;;
21507;SDS011;10915;54.352;9.074;2023-02-12T03:04:06;40.03;;;7.73;;
21507;SDS011;10915;54.352;9.074;2023-02-12T03:06:54;34.53;;;7.70;;
21507;SDS011;10915;54.352;9.074;2023-02-12T03:09:40;36.00;;;7.77;;
21507;SDS011;10915;54.352;9.074;2023-02-12T03:12:15;44.80;;;8.83;;
21507;SDS011;10915;54.352;9.074;2023-02-12T03:15:08;23.53;;;6.13;;
21507;SDS011;10915;54.352;9.074;2023-02-12T03:17:48;36.53;;;6.30;;
21507;SDS011;10915;54.352;9.074;2023-02-12T03:22:47;42.97;;;8.07;;
21507;SDS011;10915;54.352;9.074;2023-02-12T03:28:19;50.10;;;8.03;;
21507;SDS011;10915;54.352;9.074;2023-02-12T03:36:37;31.87;;;6.60;;
21507;SDS011;10915;54.352;9.074;2023-02-12T03:47:37;30.43;;;6.30;;
21507;SDS011;10915;54.352;9.074;2023-02-12T03:50:10;25.97;;;6.50;;
21507;SDS011;10915;54.352;9.074;2023-02-12T03:52:49;28.43;;;6.47;;
21507;SDS011;10915;54.352;9.074;2023-02-12T03:55:15;48.07;;;8.57;;
21507;SDS011;10915;54.352;9.074;2023-02-12T03:57:42;39.63;;;7.70;;
21507;SDS011;10915;54.352;9.074;2023-02-12T04:00:16;40.17;;;7.57;;
21507;SDS011;10915;54.352;9.074;2023-02-12T04:02:44;43.03;;;7.20;;
21507;SDS011;10915;54.352;9.074;2023-02-12T04:05:21;37.13;;;7.77;;
21507;SDS011;10915;54.352;9.074;2023-02-12T04:07:52;46.37;;;7.70;;
21507;SDS011;10915;54.352;9.074;2023-02-12T04:10:21;44.30;;;8.07;;
21507;SDS011;10915;54.352;9.074;2023-02-12T04:13:09;35.30;;;7.63;;
21507;SDS011;10915;54.352;9.074;2023-02-12T04:18:30;35.43;;;7.10;;
21507;SDS011;10915;54.352;9.074;2023-02-12T04:31:52;42.30;;;8.07;;
21507;SDS011;10915;54.352;9.074;2023-02-12T04:36:27;44.93;;;7.90;;
21507;SDS011;10915;54.352;9.074;2023-02-12T04:38:58;50.53;;;8.57;;
21507;SDS011;10915;54.352;9.074;2023-02-12T04:41:27;35.73;;;8.13;;
21507;SDS011;10915;54.352;9.074;2023-02-12T04:43:55;36.03;;;8.07;;
21507;SDS011;10915;54.352;9.074;2023-02-12T04:46:21;35.90;;;7.83;;
21507;SDS011;10915;54.352;9.074;2023-02-12T04:48:53;33.47;;;8.07;;
21507;SDS011;10915;54.352;9.074;2023-02-12T04:51:22;28.13;;;6.87;;
21507;SDS011;10915;54.352;9.074;2023-02-12T04:53:48;39.60;;;8.33;;
21507;SDS011;10915;54.352;9.074;2023-02-12T04:56:14;37.57;;;8.20;;
21507;SDS011;10915;54.352;9.074;2023-02-12T04:58:41;45.17;;;8.27;;
21507;SDS011;10915;54.352;9.074;2023-02-12T05:01:07;37.67;;;8.00;;
21507;SDS011;10915;54.352;9.074;2023-02-12T05:03:34;44.60;;;8.50;;
21507;SDS011;10915;54.352;9.074;2023-02-12T05:06:04;38.93;;;7.90;;
21507;SDS011;10915;54.352;9.074;2023-02-12T05:08:31;40.87;;;8.90;;
21507;SDS011;10915;54.352;9.074;2023-02-12T05:10:56;38.47;;;8.13;;
21507;SDS011;10915;54.352;9.074;2023-02-12T05:13:27;48.10;;;9.37;;
21507;SDS011;10915;54.352;9.074;2023-02-12T05:15:52;36.73;;;8.17;;
21507;SDS011;10915;54.352;9.074;2023-02-12T05:18:18;41.90;;;9.43;;
21507;SDS011;10915;54.352;9.074;2023-02-12T05:20:44;54.53;;;8.90;;
21507;SDS011;10915;54.352;9.074;2023-02-12T05:23:09;39.77;;;8.30;;
21507;SDS011;10915;54.352;9.074;2023-02-12T05:25:35;40.67;;;8.83;;
21507;SDS011;10915;54.352;9.074;2023-02-12T05:28:01;42.03;;;8.40;;
21507;SDS011;10915;54.352;9.074;2023-02-12T05:30:26;44.80;;;8.67;;
21507;SDS011;10915;54.352;9.074;2023-02-12T05:32:52;50.93;;;9.50;;
21507;SDS011;10915;54.352;9.074;2023-02-12T05:35:17;30.50;;;7.40;;
21507;SDS011;10915;54.352;9.074;2023-02-12T05:37:43;37.53;;;8.83;;
21507;SDS011;10915;54.352;9.074;2023-02-12T05:40:09;56.57;;;10.33;;
21507;SDS011;10915;54.352;9.074;2023-02-12T05:42:35;37.30;;;7.77;;
21507;SDS011;10915;54.352;9.074;2023-02-12T05:45:01;45.40;;;8.87;;
21507;SDS011;10915;54.352;9.074;2023-02-12T05:47:27;38.13;;;9.07;;
21507;SDS011;10915;54.352;9.074;2023-02-12T05:49:53;41.17;;;8.87;;
21507;SDS011;10915;54.352;9.074;2023-02-12T05:52:19;46.23;;;9.13;;
21507;SDS011;10915;54.352;9.074;2023-02-12T05:54:47;47.37;;;9.53;;
21507;SDS011;10915;54.352;9.074;2023-02-12T05:57:14;40.33;;;9.13;;
21507;SDS011;10915;54.352;9.074;2023-02-12T05:59:40;44.03;;;9.57;;
21507;SDS011;10915;54.352;9.074;2023-02-12T06:02:06;45.37;;;8.07;;
21507;SDS011;10915;54.352;9.074;2023-02-12T06:04:31;50.23;;;10.00;;
21507;SDS011;10915;54.352;9.074;2023-02-12T06:06:58;35.83;;;7.60;;
21507;SDS011;10915;54.352;9.074;2023-02-12T06:09:24;41.97;;;9.03;;
21507;SDS011;10915;54.352;9.074;2023-02-12T06:11:50;27.93;;;6.97;;
21507;SDS011;10915;54.352;9.074;2023-02-12T06:14:17;28.07;;;7.13;;
21507;SDS011;10915;54.352;9.074;2023-02-12T06:16:48;30.10;;;8.17;;
21507;SDS011;10915;54.352;9.074;2023-02-12T06:19:15;40.57;;;7.97;;
21507;SDS011;10915;54.352;9.074;2023-02-12T06:21:41;24.53;;;7.40;;
21507;SDS011;10915;54.352;9.074;2023-02-12T06:24:08;42.80;;;8.13;;
21507;SDS011;10915;54.352;9.074;2023-02-12T06:26:36;43.83;;;8.97;;
21507;SDS011;10915;54.352;9.074;2023-02-12T06:29:01;39.60;;;8.67;;
21507;SDS011;10915;54.352;9.074;2023-02-12T06:31:28;37.37;;;8.00;;
21507;SDS011;10915;54.352;9.074;2023-02-12T06:33:57;39.90;;;8.07;;
21507;SDS011;10915;54.352;9.074;2023-02-12T06:36:25;44.00;;;8.00;;
21507;SDS011;10915;54.352;9.074;2023-02-12T06:38:51;50.50;;;9.00;;
21507;SDS011;10915;54.352;9.074;2023-02-12T06:41:17;30.00;;;8.20;;
21507;SDS011;10915;54.352;9.074;2023-02-12T06:43:43;36.83;;;8.37;;
21507;SDS011;10915;54.352;9.074;2023-02-12T06:46:09;44.63;;;8.47;;
21507;SDS011;10915;54.352;9.074;2023-02-12T06:48:35;42.87;;;8.17;;
21507;SDS011;10915;54.352;9.074;2023-02-12T06:51:05;43.33;;;8.40;;
21507;SDS011;10915;54.352;9.074;2023-02-12T06:53:42;37.40;;;7.60;;
21507;SDS011;10915;54.352;9.074;2023-02-12T06:56:09;43.87;;;8.47;;
21507;SDS011;10915;54.352;9.074;2023-02-12T06:58:41;30.77;;;7.47;;
21507;SDS011;10915;54.352;9.074;2023-02-12T07:01:15;32.83;;;7.03;;
21507;SDS011;10915;54.352;9.074;2023-02-12T07:03:53;34.33;;;7.47;;
21507;SDS011;10915;54.352;9.074;2023-02-12T07:06:20;31.77;;;8.30;;
21507;SDS011;10915;54.352;9.074;2023-02-12T07:08:47;34.87;;;7.73;;
21507;SDS011;10915;54.352;9.074;2023-02-12T07:11:13;42.20;;;8.47;;
21507;SDS011;10915;54.352;9.074;2023-02-12T07:13:40;32.93;;;8.07;;
21507;SDS011;10915;54.352;9.074;2023-02-12T07:16:07;26.73;;;7.23;;
21507;SDS011;10915;54.352;9.074;2023-02-12T07:18:35;35.67;;;7.83;;
21507;SDS011;10915;54.352;9.074;2023-02-12T07:21:02;51.40;;;9.80;;
21507;SDS011;10915;54.352;9.074;2023-02-12T07:23:30;31.97;;;9.00;;
21507;SDS011;10915;54.352;9.074;2023-02-12T07:26:05;30.73;;;8.23;;
21507;SDS011;10915;54.352;9.074;2023-02-12T07:28:36;35.37;;;8.00;;
21507;SDS011;10915;54.352;9.074;2023-02-12T07:31:09;29.03;;;7.60;;
21507;SDS011;10915;54.352;9.074;2023-02-12T07:33:37;29.20;;;7.47;;
21507;SDS011;10915;54.352;9.074;2023-02-12T07:36:04;43.27;;;7.70;;
21507;SDS011;10915;54.352;9.074;2023-02-12T07:38:32;28.80;;;7.37;;
21507;SDS011;10915;54.352;9.074;2023-02-12T07:41:22;38.67;;;8.20;;
21507;SDS011;10915;54.352;9.074;2023-02-12T07:43:52;35.77;;;7.80;;
21507;SDS011;10915;54.352;9.074;2023-02-12T07:46:24;33.47;;;6.47;;
21507;SDS011;10915;54.352;9.074;2023-02-12T07:48:58;42.70;;;8.23;;
21507;SDS011;10915;54.352;9.074;2023-02-12T07:51:25;31.43;;;6.97;;
21507;SDS011;10915;54.352;9.074;2023-02-12T07:53:52;24.30;;;6.57;;
21507;SDS011;10915;54.352;9.074;2023-02-12T07:56:19;36.70;;;6.57;;
21507;SDS011;10915;54.352;9.074;2023-02-12T07:58:47;36.73;;;7.30;;
21507;SDS011;10915;54.352;9.074;2023-02-12T08:03:56;32.60;;;6.67;;
21507;SDS011;10915;54.352;9.074;2023-02-12T08:06:25;33.30;;;6.60;;
21507;SDS011;10915;54.352;9.074;2023-02-12T08:08:53;35.77;;;6.77;;
21507;SDS011;10915;54.352;9.074;2023-02-12T08:11:25;23.57;;;5.93;;
21507;SDS011;10915;54.352;9.074;2023-02-12T08:13:52;22.63;;;5.53;;
21507;SDS011;10915;54.352;9.074;2023-02-12T08:16:22;33.67;;;6.70;;
21507;SDS011;10915;54.352;9.074;2023-02-12T08:18:50;31.27;;;6.50;;
21507;SDS011;10915;54.352;9.074;2023-02-12T08:21:17;28.37;;;7.07;;
21507;SDS011;10915;54.352;9.074;2023-02-12T08:23:47;35.30;;;6.63;;
21507;SDS011;10915;54.352;9.074;2023-02-12T08:26:15;24.07;;;6.50;;
21507;SDS011;10915;54.352;9.074;2023-02-12T08:29:11;27.00;;;7.20;;
21507;SDS011;10915;54.352;9.074;2023-02-12T08:31:40;26.37;;;6.97;;
21507;SDS011;10915;54.352;9.074;2023-02-12T08:34:21;31.47;;;7.03;;
21507;SDS011;10915;54.352;9.074;2023-02-12T08:37:07;34.67;;;7.10;;
21507;SDS011;10915;54.352;9.074;2023-02-12T08:39:33;32.23;;;6.67;;
21507;SDS011;10915;54.352;9.074;2023-02-12T08:42:01;33.30;;;6.70;;
21507;SDS011;10915;54.352;9.074;2023-02-12T08:44:27;45.10;;;8.53;;
21507;SDS011;10915;54.352;9.074;2023-02-12T08:46:53;36.37;;;7.07;;
21507;SDS011;10915;54.352;9.074;2023-02-12T08:49:20;26.07;;;7.13;;
21507;SDS011;10915;54.352;9.074;2023-02-12T08:51:49;27.33;;;6.67;;
21507;SDS011;10915;54.352;9.074;2023-02-12T08:54:23;38.30;;;7.57;;
21507;SDS011;10915;54.352;9.074;2023-02-12T08:56:56;33.03;;;8.00;;
21507;SDS011;10915;54.352;9.074;2023-02-12T08:59:25;42.30;;;12.23;;
21507;SDS011;10915;54.352;9.074;2023-02-12T09:01:58;39.67;;;7.73;;
21507;SDS011;10915;54.352;9.074;2023-02-12T09:04:25;46.17;;;10.43;;
21507;SDS011;10915;54.352;9.074;2023-02-12T09:06:52;52.63;;;21.23;;
21507;SDS011;10915;54.352;9.074;2023-02-12T09:09:18;49.33;;;9.63;;
21507;SDS011;10915;54.352;9.074;2023-02-12T09:11:44;37.73;;;8.63;;
21507;SDS011;10915;54.352;9.074;2023-02-12T09:14:12;31.60;;;7.63;;
21507;SDS011;10915;54.352;9.074;2023-02-12T09:16:39;31.57;;;7.37;;
21507;SDS011;10915;54.352;9.074;2023-02-12T09:19:05;35.53;;;8.60;;
21507;SDS011;10915;54.352;9.074;2023-02-12T09:21:32;28.23;;;7.30;;
21507;SDS011;10915;54.352;9.074;2023-02-12T09:23:59;40.90;;;8.10;;
21507;SDS011;10915;54.352;9.074;2023-02-12T09:26:26;42.97;;;9.63;;
21507;SDS011;10915;54.352;9.074;2023-02-12T09:28:54;30.97;;;7.73;;
21507;SDS011;10915;54.352;9.074;2023-02-12T09:31:27;21.40;;;6.27;;
21507;SDS011;10915;54.352;9.074;2023-02-12T09:33:56;17.50;;;6.23;;
21507;SDS011;10915;54.352;9.074;2023-02-12T09:36:32;10.27;;;5.20;;
21507;SDS011;10915;54.352;9.074;2023-02-12T09:39:27;21.17;;;5.43;;
21507;SDS011;10915;54.352;9.074;2023-02-12T09:44:36;16.13;;;12.70;;
21507;SDS011;10915;54.352;9.074;2023-02-12T09:47:18;17.73;;;7.17;;
21507;SDS011;10915;54.352;9.074;2023-02-12T09:52:51;17.10;;;6.87;;
21507;SDS011;10915;54.352;9.074;2023-02-12T09:58:55;15.53;;;6.43;;
21507;SDS011;10915;54.352;9.074;2023-02-12T10:01:27;18.47;;;8.00;;
21507;SDS011;10915;54.352;9.074;2023-02-12T10:03:56;22.03;;;10.60;;
21507;SDS011;10915;54.352;9.074;2023-02-12T10:06:47;19.40;;;11.93;;
21507;SDS011;10915;54.352;9.074;2023-02-12T10:12:37;15.77;;;7.97;;
21507;SDS011;10915;54.352;9.074;2023-02-12T10:26:56;12.20;;;4.27;;
21507;SDS011;10915;54.352;9.074;2023-02-12T10:29:36;10.57;;;3.97;;
21507;SDS011;10915;54.352;9.074;2023-02-12T10:38:25;9.20;;;3.93;;
21507;SDS011;10915;54.352;9.074;2023-02-12T10:41:04;9.60;;;3.27;;
21507;SDS011;10915;54.352;9.074;2023-02-12T10:43:45;8.93;;;3.60;;
21507;SDS011;10915;54.352;9.074;2023-02-12T10:49:35;8.63;;;3.63;;
21507;SDS011;10915;54.352;9.074;2023-02-12T10:52:04;8.30;;;3.90;;
21507;SDS011;10915;54.352;9.074;2023-02-12T10:54:45;8.33;;;3.70;;
21507;SDS011;10915;54.352;9.074;2023-02-12T10:57:47;7.60;;;3.80;;
21507;SDS011;10915;54.352;9.074;2023-02-12T11:00:26;6.87;;;3.67;;
21507;SDS011;10915;54.352;9.074;2023-02-12T11:05:33;6.27;;;2.90;;
21507;SDS011;10915;54.352;9.074;2023-02-12T11:08:04;8.90;;;3.57;;
21507;SDS011;10915;54.352;9.074;2023-02-12T11:11:01;3.97;;;2.10;;
21507;SDS011;10915;54.352;9.074;2023-02-12T11:14:03;2.83;;;1.50;;
21507;SDS011;10915;54.352;9.074;2023-02-12T11:16:44;2.33;;;1.43;;
21507;SDS011;10915;54.352;9.074;2023-02-12T11:19:23;1.53;;;0.90;;
21507;SDS011;10915;54.352;9.074;2023-02-12T11:21:50;1.60;;;1.00;;
21507;SDS011;10915;54.352;9.074;2023-02-12T11:24:42;1.10;;;0.80;;
21507;SDS011;10915;54.352;9.074;2023-02-12T11:27:12;0.97;;;0.90;;
21507;SDS011;10915;54.352;9.074;2023-02-12T11:29:44;1.27;;;1.10;;
21507;SDS011;10915;54.352;9.074;2023-02-12T11:32:16;2.17;;;1.97;;
21507;SDS011;10915;54.352;9.074;2023-02-12T11:34:43;1.53;;;1.43;;
21507;SDS011;10915;54.352;9.074;2023-02-12T11:37:13;1.57;;;1.13;;
21507;SDS011;10915;54.352;9.074;2023-02-12T11:39:44;0.73;;;0.73;;
21507;SDS011;10915;54.352;9.074;2023-02-12T11:42:23;0.83;;;0.83;;
21507;SDS011;10915;54.352;9.074;2023-02-12T11:45:02;1.80;;;1.37;;
21507;SDS011;10915;54.352;9.074;2023-02-12T11:47:29;1.53;;;1.43;;
21507;SDS011;10915;54.352;9.074;2023-02-12T11:50:14;1.10;;;0.90;;
21507;SDS011;10915;54.352;9.074;2023-02-12T11:52:52;0.90;;;0.70;;
21507;SDS011;10915;54.352;9.074;2023-02-12T11:55:34;1.20;;;1.10;;
21507;SDS011;10915;54.352;9.074;2023-02-12T11:58:28;1.53;;;1.30;;
21507;SDS011;10915;54.352;9.074;2023-02-12T12:04:07;1.30;;;1.20;;
21507;SDS011;10915;54.352;9.074;2023-02-12T12:06:39;2.17;;;1.60;;
21507;SDS011;10915;54.352;9.074;2023-02-12T12:14:59;2.93;;;1.53;;
21507;SDS011;10915;54.352;9.074;2023-02-12T12:18:08;2.60;;;1.30;;
21507;SDS011;10915;54.352;9.074;2023-02-12T12:24:23;1.60;;;0.90;;
21507;SDS011;10915;54.352;9.074;2023-02-12T12:27:13;1.67;;;1.07;;
21507;SDS011;10915;54.352;9.074;2023-02-12T12:30:04;1.60;;;1.33;;
21507;SDS011;10915;54.352;9.074;2023-02-12T12:32:43;2.60;;;1.13;;
21507;SDS011;10915;54.352;9.074;2023-02-12T12:35:24;2.50;;;1.40;;
21507;SDS011;10915;54.352;9.074;2023-02-12T12:47:37;1.57;;;1.47;;
21507;SDS011;10915;54.352;9.074;2023-02-12T12:50:41;1.50;;;1.10;;
21507;SDS011;10915;54.352;9.074;2023-02-12T13:11:03;2.27;;;1.40;;
21507;SDS011;10915;54.352;9.074;2023-02-12T13:14:12;3.10;;;1.53;;
21507;SDS011;10915;54.352;9.074;2023-02-12T13:19:51;3.50;;;2.60;;
21507;SDS011;10915;54.352;9.074;2023-02-12T13:25:13;7.40;;;3.13;;
21507;SDS011;10915;54.352;9.074;2023-02-12T13:27:52;7.77;;;5.70;;
21507;SDS011;10915;54.352;9.074;2023-02-12T13:30:24;7.67;;;5.13;;
21507;SDS011;10915;54.352;9.074;2023-02-12T13:33:59;7.67;;;5.10;;
21507;SDS011;10915;54.352;9.074;2023-02-12T13:36:11;7.07;;;4.23;;
21507;SDS011;10915;54.352;9.074;2023-02-12T13:38:59;6.37;;;3.77;;
21507;SDS011;10915;54.352;9.074;2023-02-12T13:41:35;8.33;;;4.07;;
21507;SDS011;10915;54.352;9.074;2023-02-12T13:46:47;6.67;;;3.80;;
21507;SDS011;10915;54.352;9.074;2023-02-12T13:49:44;9.90;;;4.07;;
21507;SDS011;10915;54.352;9.074;2023-02-12T13:52:22;8.33;;;4.90;;
21507;SDS011;10915;54.352;9.074;2023-02-12T13:54:55;8.83;;;5.03;;
21507;SDS011;10915;54.352;9.074;2023-02-12T13:57:40;10.23;;;4.90;;
21507;SDS011;10915;54.352;9.074;2023-02-12T14:00:26;10.17;;;5.43;;
21507;SDS011;10915;54.352;9.074;2023-02-12T14:03:10;10.97;;;5.07;;
21507;SDS011;10915;54.352;9.074;2023-02-12T14:05:37;11.43;;;5.10;;
21507;SDS011;10915;54.352;9.074;2023-02-12T14:08:04;13.40;;;5.67;;
21507;SDS011;10915;54.352;9.074;2023-02-12T14:10:35;9.00;;;5.43;;
21507;SDS011;10915;54.352;9.074;2023-02-12T14:15:38;11.33;;;5.83;;
21507;SDS011;10915;54.352;9.074;2023-02-12T14:23:41;15.53;;;7.27;;
21507;SDS011;10915;54.352;9.074;2023-02-12T14:26:10;14.77;;;6.57;;
21507;SDS011;10915;54.352;9.074;2023-02-12T14:28:49;13.40;;;7.43;;
21507;SDS011;10915;54.352;9.074;2023-02-12T14:36:39;14.60;;;8.27;;
21507;SDS011;10915;54.352;9.074;2023-02-12T14:41:46;17.80;;;8.63;;
21507;SDS011;10915;54.352;9.074;2023-02-12T14:46:51;19.40;;;9.17;;
21507;SDS011;10915;54.352;9.074;2023-02-12T14:54:43;19.73;;;8.97;;
21507;SDS011;10915;54.352;9.074;2023-02-12T15:02:40;24.60;;;9.73;;
21507;SDS011;10915;54.352;9.074;2023-02-12T15:05:31;21.20;;;10.17;;
21507;SDS011;10915;54.352;9.074;2023-02-12T15:08:18;21.27;;;8.67;;
21507;SDS011;10915;54.352;9.074;2023-02-12T15:10:58;21.43;;;8.60;;
21507;SDS011;10915;54.352;9.074;2023-02-12T15:13:38;19.80;;;8.77;;
21507;SDS011;10915;54.352;9.074;2023-02-12T15:16:08;18.80;;;8.10;;
21507;SDS011;10915;54.352;9.074;2023-02-12T15:21:50;16.83;;;8.23;;
21507;SDS011;10915;54.352;9.074;2023-02-12T15:24:22;18.30;;;8.83;;
21507;SDS011;10915;54.352;9.074;2023-02-12T15:26:50;19.47;;;8.70;;
21507;SDS011;10915;54.352;9.074;2023-02-12T15:29:29;14.63;;;8.37;;
21507;SDS011;10915;54.352;9.074;2023-02-12T15:32:03;17.27;;;9.00;;
21507;SDS011;10915;54.352;9.074;2023-02-12T15:34:32;17.03;;;8.20;;
21507;SDS011;10915;54.352;9.074;2023-02-12T15:37:03;14.37;;;8.83;;
21507;SDS011;10915;54.352;9.074;2023-02-12T15:39:40;20.40;;;10.00;;
21507;SDS011;10915;54.352;9.074;2023-02-12T15:44:49;22.37;;;9.47;;
21507;SDS011;10915;54.352;9.074;2023-02-12T15:47:14;20.10;;;9.60;;
21507;SDS011;10915;54.352;9.074;2023-02-12T15:49:41;18.87;;;9.37;;
21507;SDS011;10915;54.352;9.074;2023-02-12T15:54:44;16.83;;;9.47;;
21507;SDS011;10915;54.352;9.074;2023-02-12T15:57:12;20.27;;;9.93;;
21507;SDS011;10915;54.352;9.074;2023-02-12T15:59:47;16.23;;;9.23;;
21507;SDS011;10915;54.352;9.074;2023-02-12T16:02:19;18.20;;;9.23;;
21507;SDS011;10915;54.352;9.074;2023-02-12T16:04:53;18.10;;;10.67;;
21507;SDS011;10915;54.352;9.074;2023-02-12T16:07:20;22.43;;;10.30;;
21507;SDS011;10915;54.352;9.074;2023-02-12T16:09:47;18.10;;;10.30;;
21507;SDS011;10915;54.352;9.074;2023-02-12T16:12:16;18.87;;;9.70;;
21507;SDS011;10915;54.352;9.074;2023-02-12T16:14:49;18.30;;;10.60;;
21507;SDS011;10915;54.352;9.074;2023-02-12T16:22:41;18.23;;;9.93;;
21507;SDS011;10915;54.352;9.074;2023-02-12T16:25:18;20.37;;;10.40;;
21507;SDS011;10915;54.352;9.074;2023-02-12T16:32:53;20.40;;;10.80;;
21507;SDS011;10915;54.352;9.074;2023-02-12T16:46:33;19.40;;;10.27;;
21507;SDS011;10915;54.352;9.074;2023-02-12T16:49:12;20.20;;;9.87;;
21507;SDS011;10915;54.352;9.074;2023-02-12T16:51:42;21.00;;;9.50;;
21507;SDS011;10915;54.352;9.074;2023-02-12T16:56:56;18.80;;;9.37;;
21507;SDS011;10915;54.352;9.074;2023-02-12T16:59:22;17.90;;;9.50;;
21507;SDS011;10915;54.352;9.074;2023-02-12T17:04:43;17.30;;;9.80;;
21507;SDS011;10915;54.352;9.074;2023-02-12T17:07:22;17.03;;;9.97;;
21507;SDS011;10915;54.352;9.074;2023-02-12T17:09:52;17.50;;;10.37;;
21507;SDS011;10915;54.352;9.074;2023-02-12T17:12:18;18.57;;;9.90;;
21507;SDS011;10915;54.352;9.074;2023-02-12T17:14:44;18.53;;;9.30;;
21507;SDS011;10915;54.352;9.074;2023-02-12T17:17:10;21.70;;;10.13;;
21507;SDS011;10915;54.352;9.074;2023-02-12T17:19:35;18.17;;;9.10;;
21507;SDS011;10915;54.352;9.074;2023-02-12T17:22:01;16.30;;;9.30;;
21507;SDS011;10915;54.352;9.074;2023-02-12T17:24:28;21.10;;;9.23;;
21507;SDS011;10915;54.352;9.074;2023-02-12T17:26:55;17.40;;;8.53;;
21507;SDS011;10915;54.352;9.074;2023-02-12T17:29:22;14.60;;;7.93;;
21507;SDS011;10915;54.352;9.074;2023-02-12T17:31:49;18.27;;;8.37;;
21507;SDS011;10915;54.352;9.074;2023-02-12T17:34:19;13.43;;;7.90;;
21507;SDS011;10915;54.352;9.074;2023-02-12T17:36:46;16.20;;;8.77;;
21507;SDS011;10915;54.352;9.074;2023-02-12T17:39:12;12.50;;;7.87;;
21507;SDS011;10915;54.352;9.074;2023-02-12T17:41:38;18.57;;;8.27;;
21507;SDS011;10915;54.352;9.074;2023-02-12T17:44:05;16.73;;;8.33;;
21507;SDS011;10915;54.352;9.074;2023-02-12T17:46:31;13.13;;;7.70;;
21507;SDS011;10915;54.352;9.074;2023-02-12T17:48:58;14.83;;;7.50;;
21507;SDS011;10915;54.352;9.074;2023-02-12T17:51:24;15.17;;;7.30;;
21507;SDS011;10915;54.352;9.074;2023-02-12T17:53:50;13.80;;;6.80;;
21507;SDS011;10915;54.352;9.074;2023-02-12T17:56:17;17.43;;;7.73;;
21507;SDS011;10915;54.352;9.074;2023-02-12T17:58:45;14.27;;;8.40;;
21507;SDS011;10915;54.352;9.074;2023-02-12T18:01:13;14.07;;;8.37;;
21507;SDS011;10915;54.352;9.074;2023-02-12T18:03:40;13.67;;;7.80;;
21507;SDS011;10915;54.352;9.074;2023-02-12T18:06:06;14.77;;;8.20;;
21507;SDS011;10915;54.352;9.074;2023-02-12T18:08:33;15.33;;;8.30;;
21507;SDS011;10915;54.352;9.074;2023-02-12T18:11:08;17.30;;;8.90;;
21507;SDS011;10915;54.352;9.074;2023-02-12T18:13:35;12.30;;;8.23;;
21507;SDS011;10915;54.352;9.074;2023-02-12T18:16:04;17.43;;;9.10;;
21507;SDS011;10915;54.352;9.074;2023-02-12T18:18:34;15.50;;;8.90;;
21507;SDS011;10915;54.352;9.074;2023-02-12T18:21:04;13.57;;;8.17;;
21507;SDS011;10915;54.352;9.074;2023-02-12T18:23:35;12.10;;;8.03;;